Terminal Aerodrome Forecast
Issued by NWS Central Illinois

Home | Current Version | Previous Version | Text Only | Print | Product List | Glossary On
Versions: 1 2 3 4 5 6 7 8 9 10 11 12 13 14 15 16 17 18 19 20 21
832
FTUS43 KILX 291742
TAFPIA
TAF
KPIA 291742Z 2918/3018 29006KT P6SM BKN013
      TEMPO 2918/2920 SCT015 BKN025
     FM292000 30005KT P6SM VCSH SCT025 BKN035
     FM300200 VRB03KT P6SM BKN035
     FM301000 VRB03KT 2SM BR BKN004
     FM301400 30005KT P6SM SCT007 BKN012=

USA.gov is the U.S. government's official web portal to all federal, state and local government web resources and services.